Orbital elements of COSMOS 2251 DEB
| Launched | 15 June 1993 |
| Flight ended | – |
| Launch site | Plesetsk Missile and Space Complex, Russia |
| Owner | Commonwealth of Independent States (former USSR) |
| NORAD ID | 34413 |
| Date fetched |
Epoch osculation |
Inc. [°] |
Ecc. | RA asc node [hr] |
Arg Peri. [°] |
Mean anom [°] |
Mean motion [rev/day] |
Abs. mag |
| Date fetched |
Epoch osculation |
Inc. [°] |
Ecc. | RA asc node [hr] |
Arg Peri. [°] |
Mean anom [°] |
Mean motion [rev/day] |
Abs. mag |
| 2026 May 05 17:57 | 2026 May 05 02:08:43 | 74.0321 | 0.00901 | 0.2864 | 49.6206 | 100.0062 | 14.30103 | – |
| 2026 May 04 17:57 | 2026 Apr 30 11:27:51 | 74.0326 | 0.00899 | 0.8456 | 59.0354 | 100.0062 | 14.30103 | – |
| 2026 May 03 17:57 | 2026 Apr 30 11:27:51 | 74.0326 | 0.00899 | 0.8456 | 59.0354 | 100.0062 | 14.30103 | – |
| 2026 May 02 17:57 | 2026 Apr 30 11:27:51 | 74.0326 | 0.00899 | 0.8456 | 59.0354 | 100.0062 | 14.30103 | – |
| 2026 May 01 17:56 | 2026 Apr 30 11:27:51 | 74.0326 | 0.00899 | 0.8456 | 59.0354 | 100.0062 | 14.30103 | – |
| 2026 Apr 30 17:56 | 2026 Apr 30 11:27:51 | 74.0326 | 0.00899 | 0.8456 | 59.0354 | 100.0062 | 14.30103 | – |
| 2026 Apr 29 17:57 | 2026 Apr 23 12:41:57 | 74.0315 | 0.00895 | 1.6882 | 73.3443 | 100.0062 | 14.30103 | – |
| 2026 Apr 28 17:56 | 2026 Apr 23 12:41:57 | 74.0315 | 0.00895 | 1.6882 | 73.3443 | 100.0062 | 14.30103 | – |
| 2026 Apr 27 17:58 | 2026 Apr 23 12:41:57 | 74.0315 | 0.00895 | 1.6882 | 73.3443 | 100.0062 | 14.30103 | – |
| 2026 Apr 26 17:58 | 2026 Apr 23 12:41:57 | 74.0315 | 0.00895 | 1.6882 | 73.3443 | 100.0062 | 14.30103 | – |
| 2026 Apr 25 17:58 | 2026 Apr 23 12:41:57 | 74.0315 | 0.00895 | 1.6882 | 73.3443 | 100.0062 | 14.30103 | – |
| 2026 Apr 24 17:59 | 2026 Apr 23 12:41:57 | 74.0315 | 0.00895 | 1.6882 | 73.3443 | 100.0062 | 14.30103 | – |
| 2026 Apr 23 17:57 | 2026 Apr 19 13:32:59 | 74.0313 | 0.00892 | 2.1689 | 81.5316 | 100.0062 | 14.30103 | – |
| 2026 Apr 22 17:57 | 2026 Apr 19 13:32:59 | 74.0313 | 0.00892 | 2.1689 | 81.5316 | 100.0062 | 14.30103 | – |
| 2026 Apr 21 17:57 | 2026 Apr 19 13:32:59 | 74.0313 | 0.00892 | 2.1689 | 81.5316 | 100.0062 | 14.30103 | – |
| 2026 Apr 20 17:57 | 2026 Apr 19 13:32:59 | 74.0313 | 0.00892 | 2.1689 | 81.5316 | 100.0062 | 14.30103 | – |
| 2026 Apr 19 17:58 | 2026 Apr 19 13:32:59 | 74.0313 | 0.00892 | 2.1689 | 81.5316 | 100.0062 | 14.30103 | – |
| 2026 Apr 18 17:56 | 2026 Apr 13 06:18:48 | 74.0311 | 0.00889 | 2.9329 | 94.6119 | 100.0062 | 14.30103 | – |
| 2026 Apr 16 17:57 | 2026 Apr 13 06:18:48 | 74.0311 | 0.00889 | 2.9329 | 94.6119 | 100.0062 | 14.30103 | – |
| 2026 Apr 14 17:57 | 2026 Apr 13 06:18:48 | 74.0311 | 0.00889 | 2.9329 | 94.6119 | 100.0062 | 14.30103 | – |
| 2026 Apr 13 17:57 | 2026 Apr 13 06:18:48 | 74.0311 | 0.00889 | 2.9329 | 94.6119 | 100.0062 | 14.30103 | – |
| 2026 Apr 12 17:57 | 2026 Apr 08 15:37:28 | 74.0311 | 0.00886 | 3.4922 | 104.2460 | 100.0062 | 14.30103 | – |
| 2026 Apr 11 17:57 | 2026 Apr 08 15:37:28 | 74.0311 | 0.00886 | 3.4922 | 104.2460 | 100.0062 | 14.30103 | – |
| 2026 Apr 10 17:58 | 2026 Apr 08 15:37:28 | 74.0311 | 0.00886 | 3.4922 | 104.2460 | 100.0062 | 14.30103 | – |
| 2026 Apr 09 18:01 | 2026 Apr 08 15:37:28 | 74.0311 | 0.00886 | 3.4922 | 104.2460 | 100.0062 | 14.30103 | – |
| 2026 Apr 08 17:57 | 2026 Apr 08 15:37:28 | 74.0311 | 0.00886 | 3.4922 | 104.2460 | 100.0062 | 14.30103 | – |